Time;durP1;ratioP1;P1;durP2;ratioP2;P2;SDS_P1;SDS_P2;PMS_P1;PMS_P2;Temp;Humidity;BMP_temperature;BMP_pressure;BME280_temperature;BME280_humidity;BME280_pressure;Samples;Min_cycle;Max_cycle;Signal;HPM_P1;HPM_P2
2021/09/30 00:01:18;;;;;;;;;0.75;0.25;;;;;10.58;65.19;101705.72;5078872;28;45217;-82
2021/09/30 00:03:43;;;;;;;;;1.75;0.75;;;;;10.52;65.06;101697.97;5076859;28;45479;-82
2021/09/30 00:06:09;;;;;;;;;1.00;1.00;;;;;10.50;65.64;101691.81;5059338;28;45559;-82
2021/09/30 00:08:34;;;;;;;;;0.00;0.00;;;;;10.53;65.60;101700.56;5058690;28;45257;-82
2021/09/30 00:11:06;;;;;;;;;0.00;0.00;;;;;10.51;65.15;101709.53;5057773;28;45180;-83
2021/09/30 00:32:38;;;;;;;;;1.00;0.00;;;;;10.42;65.80;101675.28;5078464;28;45233;-81
2021/09/30 00:45:55;;;;;;;;;1.75;0.25;;;;;10.40;65.83;101693.94;5064370;28;45219;-82
2021/09/30 00:51:08;;;;;;;;;0.00;0.00;;;;;10.41;65.95;101679.72;5074500;28;45287;-82
2021/09/30 01:23:17;;;;;;;;;1.00;0.00;;;;;10.44;65.67;101665.47;5073970;28;45282;-82
2021/09/30 02:28:32;;;;;;;;;1.00;0.00;;;;;10.10;66.06;101625.00;4935582;28;45281;-82
2021/09/30 02:39:43;;;;;;;;;0.25;0.00;;;;;10.09;65.70;101623.28;4919927;28;45819;-82
2021/09/30 02:58:49;;;;;;;;;1.25;0.00;;;;;10.11;65.86;101624.06;5013324;28;45226;-82
2021/09/30 03:01:18;;;;;;;;;2.00;1.00;;;;;10.10;65.71;101632.97;5059091;28;46340;-82
2021/09/30 03:03:45;;;;;;;;;0.00;0.00;;;;;9.89;65.57;101601.84;5059558;28;45202;-82
2021/09/30 03:06:11;;;;;;;;;2.75;1.00;;;;;9.91;65.60;101608.84;5059322;28;45174;-82
2021/09/30 03:08:42;;;;;;;;;0.00;0.00;;;;;10.01;66.03;101628.00;5059649;28;45148;-82
2021/09/30 03:11:09;;;;;;;;;1.50;0.00;;;;;9.86;66.13;101618.75;5058707;28;45367;-82
2021/09/30 03:13:36;;;;;;;;;0.75;0.75;;;;;9.89;66.39;101625.75;5058925;28;45621;-82
2021/09/30 03:23:35;;;;;;;;;1.00;1.00;;;;;9.77;66.33;101616.44;5058501;28;45548;-82
2021/09/30 03:26:01;;;;;;;;;2.00;0.00;;;;;9.73;66.34;101613.00;5058845;28;45190;-82
2021/09/30 03:28:29;;;;;;;;;0.00;0.00;;;;;9.83;66.22;101635.69;5059347;28;45125;-82
2021/09/30 03:30:56;;;;;;;;;0.00;0.00;;;;;9.70;66.29;101606.97;5057386;28;45833;-82
2021/09/30 03:33:23;;;;;;;;;0.25;0.00;;;;;9.76;66.44;101626.22;5058161;28;45347;-82
2021/09/30 03:35:49;;;;;;;;;0.25;0.00;;;;;9.82;66.42;101636.63;5061597;28;45344;-82
2021/09/30 03:38:15;;;;;;;;;2.50;0.25;;;;;9.82;66.57;101636.63;5079384;28;45268;-82
2021/09/30 03:40:42;;;;;;;;;2.00;0.00;;;;;9.78;66.26;101634.97;5074288;28;46341;-82
2021/09/30 03:43:08;;;;;;;;;1.00;1.00;;;;;9.66;66.74;101623.00;5071750;28;45305;-82
2021/09/30 03:45:35;;;;;;;;;0.25;0.00;;;;;9.76;66.51;101638.59;5078447;28;45219;-82
2021/09/30 03:48:00;;;;;;;;;3.00;0.00;;;;;9.61;66.45;101622.28;5079466;28;45163;-82
2021/09/30 03:50:30;;;;;;;;;0.00;0.00;;;;;9.60;66.73;101625.84;5073640;28;46177;-82
2021/09/30 03:55:30;;;;;;;;;0.75;0.00;;;;;9.55;67.03;101638.44;5077225;28;45207;-81
2021/09/30 04:00:40;;;;;;;;;2.50;0.00;;;;;9.61;67.01;101656.81;5071605;28;45358;-82
2021/09/30 04:03:05;;;;;;;;;0.00;0.00;;;;;9.56;66.64;101655.22;5077848;28;45176;-82
2021/09/30 04:05:32;;;;;;;;;1.00;0.00;;;;;9.52;67.06;101653.59;5061879;28;45099;-82
2021/09/30 04:07:57;;;;;;;;;0.00;0.00;;;;;9.53;67.10;101656.19;5058826;28;45110;-82
2021/09/30 04:10:22;;;;;;;;;2.00;0.00;;;;;9.53;67.18;101658.84;5058038;28;45896;-82
2021/09/30 04:12:48;;;;;;;;;0.75;0.00;;;;;9.45;66.91;101643.19;5059462;28;45352;-82
2021/09/30 04:15:13;;;;;;;;;0.75;0.00;;;;;9.46;67.03;101639.63;5069862;28;45202;-82
2021/09/30 04:17:38;;;;;;;;;1.50;0.00;;;;;9.39;67.35;101639.84;5077445;28;45250;-82
2021/09/30 04:20:05;;;;;;;;;0.00;0.00;;;;;9.41;66.99;101644.19;5078270;28;46098;-82
2021/09/30 04:22:30;;;;;;;;;1.00;1.00;;;;;9.41;67.25;101641.53;5078499;28;45486;-82
2021/09/30 04:24:55;;;;;;;;;0.50;0.00;;;;;9.39;67.11;101642.50;5078489;28;45448;-81
2021/09/30 04:27:21;;;;;;;;;2.50;0.00;;;;;9.46;67.51;101660.84;5071340;28;45222;-81
2021/09/30 04:29:46;;;;;;;;;1.00;0.00;;;;;9.44;67.46;101662.66;5059694;28;48187;-82
2021/09/30 04:32:12;;;;;;;;;6.00;6.00;;;;;9.37;67.09;101647.88;5070404;28;45403;-82
2021/09/30 04:34:37;;;;;;;;;1.00;1.00;;;;;9.32;67.20;101636.56;5057873;28;45222;-82
2021/09/30 04:37:03;;;;;;;;;3.75;2.00;;;;;9.39;67.03;101640.75;5066143;28;45287;-81
2021/09/30 04:39:28;;;;;;;;;8.25;5.00;;;;;9.39;67.33;101632.78;5057532;28;47235;-81
2021/09/30 04:41:54;;;;;;;;;0.00;0.00;;;;;9.38;67.00;101627.50;5064346;28;45287;-81
2021/09/30 04:44:22;;;;;;;;;2.25;0.50;;;;;9.44;67.05;101630.81;5072899;28;45378;-81
2021/09/30 04:46:47;;;;;;;;;3.75;1.00;;;;;9.41;67.27;101619.44;5059904;28;45236;-82
2021/09/30 04:49:13;;;;;;;;;1.75;1.75;;;;;9.49;67.00;101633.31;5078013;28;46371;-82
2021/09/30 04:51:38;;;;;;;;;2.50;1.00;;;;;9.42;66.75;101619.41;5077890;28;45214;-81
2021/09/30 04:54:03;;;;;;;;;1.25;1.00;;;;;9.48;66.89;101628.94;5078266;28;45470;-82
2021/09/30 04:56:29;;;;;;;;;2.00;1.00;;;;;9.42;67.20;101623.81;5078312;28;45195;-87
2021/09/30 04:58:55;;;;;;;;;0.00;0.00;;;;;9.44;66.98;101633.47;5060161;28;47919;-88
2021/09/30 05:01:21;;;;;;;;;0.00;0.00;;;;;9.41;67.10;101630.91;5077888;28;45577;-88
2021/09/30 05:03:46;;;;;;;;;0.00;0.00;;;;;9.46;67.16;101644.03;5060335;28;45259;-88
2021/09/30 05:06:12;;;;;;;;;0.00;0.00;;;;;9.33;67.42;101633.84;5060171;28;45456;-89
2021/09/30 05:08:39;;;;;;;;;1.50;1.00;;;;;9.37;67.55;101649.66;5054753;28;47982;-89
2021/09/30 05:11:05;;;;;;;;;0.00;0.00;;;;;9.15;67.48;101623.81;5060441;28;45219;-90
2021/09/30 05:13:39;;;;;;;;;1.00;1.00;;;;;9.19;67.70;101636.06;5039730;28;45147;-88
2021/09/30 05:16:07;;;;;;;;;0.00;0.00;;;;;9.24;67.24;101644.75;5075764;28;45920;-82
2021/09/30 05:18:33;;;;;;;;;1.25;1.00;;;;;9.27;67.44;101649.09;5077343;28;45229;-82
2021/09/30 05:20:58;;;;;;;;;1.50;1.00;;;;;9.14;67.87;101619.44;5077382;28;45198;-82
2021/09/30 05:23:23;;;;;;;;;2.00;0.75;;;;;9.24;67.93;101638.59;5077624;28;45228;-82
2021/09/30 05:25:49;;;;;;;;;1.00;0.00;;;;;9.22;67.58;101649.25;5077384;28;45228;-82
2021/09/30 05:28:15;;;;;;;;;1.50;0.00;;;;;9.29;67.60;101658.75;5077459;28;45199;-82
2021/09/30 05:30:40;;;;;;;;;1.75;1.00;;;;;9.18;67.29;101636.09;5077152;28;45242;-82
2021/09/30 05:33:05;;;;;;;;;1.00;1.00;;;;;9.15;67.30;101621.16;5077343;28;45629;-82
2021/09/30 05:35:31;;;;;;;;;0.00;0.00;;;;;9.26;67.50;101642.03;5077039;28;45227;-82
2021/09/30 05:37:56;;;;;;;;;4.50;2.75;;;;;9.30;67.18;101649.00;5077548;28;46207;-82
2021/09/30 05:40:23;;;;;;;;;3.25;1.50;;;;;9.31;67.43;101653.38;5077069;28;45302;-82
2021/09/30 05:42:49;;;;;;;;;0.75;0.75;;;;;9.34;67.41;101658.59;5077069;28;45198;-82
2021/09/30 05:45:16;;;;;;;;;1.25;1.00;;;;;9.36;67.77;101656.75;5077373;28;45309;-82
2021/09/30 05:47:43;;;;;;;;;1.00;1.00;;;;;9.25;67.73;101637.63;5077159;28;46161;-82
2021/09/30 05:50:09;;;;;;;;;1.50;0.00;;;;;9.32;67.78;101661.28;5076839;28;45164;-82
2021/09/30 05:52:34;;;;;;;;;0.00;0.00;;;;;9.35;67.82;101651.47;5077215;28;45318;-82
2021/09/30 05:55:00;;;;;;;;;0.00;0.00;;;;;9.35;67.38;101654.13;5076965;28;45285;-82
2021/09/30 05:57:25;;;;;;;;;1.00;1.00;;;;;9.38;67.62;101656.69;5076859;28;46055;-82
2021/09/30 05:59:51;;;;;;;;;1.50;0.00;;;;;9.32;67.16;101652.47;5076832;28;45253;-82
2021/09/30 06:13:15;;;;;;;;;0.75;0.00;;;;;9.45;67.48;101655.59;5083383;28;45212;-82
2021/09/30 06:15:43;;;;;;;;;0.75;0.25;;;;;9.49;67.53;101655.44;5083557;28;45264;-82
2021/09/30 06:18:08;;;;;;;;;3.00;0.00;;;;;9.60;67.65;101659.50;5083158;28;45988;-82
2021/09/30 06:20:36;;;;;;;;;1.00;0.00;;;;;9.65;67.69;101658.44;5082991;28;45206;-82
2021/09/30 06:23:02;;;;;;;;;0.00;0.00;;;;;9.66;67.37;101648.66;5083393;28;45183;-81
2021/09/30 06:25:28;;;;;;;;;3.00;0.50;;;;;9.80;66.97;101656.19;5082923;28;45189;-81
2021/09/30 06:27:53;;;;;;;;;3.00;1.00;;;;;9.74;67.31;101643.97;5083305;28;45231;-81
2021/09/30 06:30:19;;;;;;;;;1.00;0.00;;;;;9.83;66.78;101648.97;5083035;28;45207;-82
2021/09/30 06:32:44;;;;;;;;;2.75;0.00;;;;;9.93;66.68;101657.50;5083357;28;45202;-81
2021/09/30 06:35:10;;;;;;;;;0.25;0.25;;;;;9.95;66.43;101654.78;5083309;28;45324;-81
2021/09/30 06:37:36;;;;;;;;;1.00;0.00;;;;;9.80;66.41;101625.16;5083147;28;45588;-81
2021/09/30 06:40:03;;;;;;;;;2.25;0.00;;;;;9.98;66.60;101650.22;5083390;28;45277;-81
2021/09/30 06:42:28;;;;;;;;;0.00;0.00;;;;;9.93;66.27;101635.38;5082850;28;45507;-81
2021/09/30 06:44:53;;;;;;;;;4.00;1.00;;;;;10.01;66.40;101633.31;5083045;28;45176;-81
2021/09/30 06:47:19;;;;;;;;;2.00;1.00;;;;;9.95;66.47;101621.09;5083049;28;45349;-81
2021/09/30 06:49:44;;;;;;;;;1.00;0.75;;;;;10.17;66.16;101642.44;5083054;28;45263;-81
2021/09/30 06:52:09;;;;;;;;;2.75;0.00;;;;;10.24;66.40;101639.59;5083306;28;45237;-82
2021/09/30 06:54:35;;;;;;;;;1.00;0.00;;;;;10.29;66.06;101626.97;5083032;28;45236;-80
2021/09/30 06:57:00;;;;;;;;;1.75;1.00;;;;;10.56;65.80;101650.84;5083141;28;46656;-81
2021/09/30 06:59:33;;;;;;;;;0.00;0.00;;;;;10.70;65.86;101628.13;5083058;28;45192;-82
2021/09/30 07:01:58;;;;;;;;;0.00;0.00;;;;;11.05;65.71;101636.50;5083287;28;45229;-82
2021/09/30 07:04:24;;;;;;;;;2.50;1.00;;;;;11.36;65.06;101635.25;5082672;28;45259;-81
2021/09/30 07:06:49;;;;;;;;;0.25;0.00;;;;;11.72;64.26;101639.09;5083327;28;46463;-81
2021/09/30 07:09:14;;;;;;;;;0.00;0.00;;;;;12.00;63.35;101638.81;5083251;28;45252;-81
2021/09/30 07:11:40;;;;;;;;;0.00;0.00;;;;;12.28;62.28;101647.38;5083244;28;45178;-81
2021/09/30 07:14:05;;;;;;;;;1.00;0.00;;;;;12.53;62.49;101634.66;5083154;28;45221;-81
2021/09/30 07:16:30;;;;;;;;;0.00;0.00;;;;;12.66;61.65;101608.25;5082928;28;45305;-81
2021/09/30 07:18:56;;;;;;;;;0.00;0.00;;;;;13.06;60.17;101633.03;5082740;28;45195;-81
2021/09/30 07:21:21;;;;;;;;;1.00;0.00;;;;;13.31;60.17;101645.19;5078440;28;45199;-81
2021/09/30 07:23:46;;;;;;;;;0.00;0.00;;;;;13.42;59.10;101642.88;5079730;28;45200;-82
2021/09/30 07:26:13;;;;;;;;;1.25;0.00;;;;;13.50;58.36;101637.16;5079491;28;45973;-82
2021/09/30 07:28:38;;;;;;;;;1.00;1.00;;;;;13.62;58.41;101649.91;5079759;28;45239;-81
2021/09/30 07:31:04;;;;;;;;;2.00;1.00;;;;;13.64;58.27;101629.28;5078997;28;45333;-82
2021/09/30 07:33:30;;;;;;;;;2.00;1.00;;;;;13.76;58.00;101649.19;5079108;28;45351;-82
2021/09/30 07:35:56;;;;;;;;;4.00;1.50;;;;;13.80;57.69;101648.06;5078776;28;45226;-82
2021/09/30 07:38:22;;;;;;;;;2.00;1.00;;;;;13.89;57.87;101651.22;5079042;28;45370;-81
2021/09/30 07:40:48;;;;;;;;;1.00;1.00;;;;;14.01;57.29;101657.72;5078978;28;45239;-81
2021/09/30 07:43:14;;;;;;;;;1.50;0.00;;;;;14.05;57.31;101652.16;5078962;28;45182;-82
2021/09/30 07:45:39;;;;;;;;;0.00;0.00;;;;;14.17;57.21;101658.69;5078281;28;45355;-81
2021/09/30 07:48:05;;;;;;;;;1.00;1.00;;;;;14.06;56.31;101627.13;5078926;28;45207;-81
2021/09/30 07:50:31;;;;;;;;;2.00;1.00;;;;;14.17;56.55;101647.13;5078437;28;45100;-82
2021/09/30 07:52:57;;;;;;;;;3.00;1.00;;;;;14.19;56.51;101648.75;5078953;28;45143;-82
2021/09/30 07:55:23;;;;;;;;;3.75;1.75;;;;;14.23;56.38;101657.47;5078439;28;46140;-81
2021/09/30 07:57:48;;;;;;;;;1.00;0.00;;;;;14.21;55.96;101630.81;5078866;28;45273;-81
2021/09/30 08:00:14;;;;;;;;;1.00;1.00;;;;;14.37;54.96;101649.59;5078798;28;45210;-81
2021/09/30 08:02:39;;;;;;;;;1.00;1.00;;;;;14.36;55.05;101644.31;5078756;28;45273;-82
2021/09/30 08:05:07;;;;;;;;;2.00;1.00;;;;;14.39;55.48;101641.47;5078477;28;45286;-82
2021/09/30 08:07:32;;;;;;;;;0.75;0.75;;;;;14.59;55.02;101662.69;5077311;28;45169;-82
2021/09/30 08:09:58;;;;;;;;;2.00;1.00;;;;;14.80;54.88;101663.31;5078452;28;45285;-82
2021/09/30 08:12:25;;;;;;;;;1.00;0.00;;;;;14.91;55.14;101661.88;5078433;28;45262;-82
2021/09/30 08:14:50;;;;;;;;;2.00;1.00;;;;;15.15;54.11;101667.66;5076642;28;46091;-82
2021/09/30 08:17:16;;;;;;;;;1.50;0.50;;;;;15.24;54.31;101659.09;5059996;28;46245;-82
2021/09/30 08:19:41;;;;;;;;;1.00;0.00;;;;;15.26;53.85;101651.81;5078436;28;45157;-82
2021/09/30 08:22:06;;;;;;;;;1.75;0.50;;;;;15.39;53.60;101664.50;5078383;28;45202;-81
2021/09/30 08:24:32;;;;;;;;;1.75;1.00;;;;;15.35;53.42;101648.63;5077871;28;46052;-81
2021/09/30 08:26:57;;;;;;;;;3.00;0.50;;;;;15.41;53.44;101651.91;5078424;28;45160;-81
2021/09/30 08:29:23;;;;;;;;;1.00;0.00;;;;;15.57;53.13;101666.13;5078131;28;45174;-81
2021/09/30 08:31:48;;;;;;;;;4.25;0.50;;;;;15.69;53.63;101665.41;5077601;28;45230;-82
2021/09/30 08:34:14;;;;;;;;;1.25;0.25;;;;;15.81;53.25;101653.09;5077903;28;45250;-82
2021/09/30 08:36:39;;;;;;;;;0.00;0.00;;;;;15.99;52.46;101664.56;5077736;28;45448;-82
2021/09/30 08:39:07;;;;;;;;;1.75;0.50;;;;;16.13;51.82;101663.72;5078147;28;45730;-82
2021/09/30 08:41:33;;;;;;;;;1.75;0.00;;;;;16.13;51.93;101647.63;5077497;28;45252;-82
2021/09/30 08:43:59;;;;;;;;;1.00;0.75;;;;;16.09;51.64;101629.09;5077938;28;46103;-82
2021/09/30 08:46:24;;;;;;;;;0.50;0.00;;;;;16.08;51.88;101638.13;5059705;28;45226;-82
2021/09/30 08:48:50;;;;;;;;;0.00;0.00;;;;;16.26;52.36;101653.09;5078407;28;45106;-82
2021/09/30 08:51:16;;;;;;;;;1.25;0.75;;;;;16.25;50.46;101634.38;5078437;28;45096;-81
2021/09/30 08:53:43;;;;;;;;;0.00;0.00;;;;;16.26;51.51;101641.47;5077534;28;45269;-82
2021/09/30 08:56:09;;;;;;;;;0.00;0.00;;;;;16.35;52.44;101644.47;5077936;28;45696;-82
2021/09/30 08:58:36;;;;;;;;;4.00;0.75;;;;;16.50;51.68;101639.97;5078037;28;45251;-82
2021/09/30 09:01:03;;;;;;;;;2.00;0.50;;;;;16.67;50.78;101638.88;5077378;28;45179;-82
2021/09/30 09:03:39;;;;;;;;;1.50;0.00;;;;;16.67;50.24;101633.50;5077630;28;45301;-82
2021/09/30 09:06:09;;;;;;;;;7.50;5.75;;;;;16.54;50.89;101633.41;5077496;28;45318;-82
2021/09/30 09:08:35;;;;;;;;;0.50;0.25;;;;;16.47;50.19;101631.22;5077873;28;45257;-82
2021/09/30 09:11:04;;;;;;;;;0.75;0.75;;;;;16.42;50.17;101634.22;5077560;28;45345;-82
2021/09/30 09:13:29;;;;;;;;;2.00;1.50;;;;;16.34;51.24;101620.41;5077549;28;45661;-81
2021/09/30 09:15:58;;;;;;;;;1.75;0.00;;;;;16.31;50.31;101615.22;5077310;28;45202;-82
2021/09/30 09:18:27;;;;;;;;;5.75;4.50;;;;;16.38;51.63;101622.78;5077635;28;45214;-82
2021/09/30 09:21:09;;;;;;;;;1.00;0.00;;;;;16.57;51.28;101621.63;5077220;28;45361;-82
2021/09/30 09:23:40;;;;;;;;;0.50;0.50;;;;;16.72;50.93;101615.28;5077122;28;45992;-82
2021/09/30 09:26:18;;;;;;;;;2.00;0.00;;;;;16.93;50.60;101616.69;5077159;28;45122;-82
2021/09/30 09:29:20;;;;;;;;;0.25;0.25;;;;;17.02;49.13;101627.69;5077624;28;45218;-82
2021/09/30 09:31:51;;;;;;;;;3.00;0.00;;;;;16.99;48.47;101619.84;5074413;28;45033;-82
2021/09/30 09:34:39;;;;;;;;;0.50;0.00;;;;;16.81;48.00;101629.06;5075341;28;47029;-82
2021/09/30 09:37:31;;;;;;;;;1.75;0.00;;;;;16.68;48.24;101629.84;5057292;28;45247;-83
2021/09/30 09:39:58;;;;;;;;;2.75;0.00;;;;;16.56;47.93;101628.81;5056980;28;45178;-81
2021/09/30 09:42:30;;;;;;;;;3.75;0.00;;;;;16.50;49.04;101629.22;5056790;28;45324;-82
2021/09/30 09:44:57;;;;;;;;;1.00;0.00;;;;;16.56;48.48;101619.91;5056303;28;46552;-82
2021/09/30 09:47:31;;;;;;;;;2.75;0.75;;;;;16.57;47.48;101624.31;5056927;28;45646;-82
2021/09/30 09:50:15;;;;;;;;;5.25;4.25;;;;;16.78;48.88;101624.75;5057005;28;45275;-81
2021/09/30 09:52:42;;;;;;;;;16.25;15.25;;;;;17.09;48.80;101620.13;5056411;28;45368;-82
2021/09/30 09:55:24;;;;;;;;;1.00;0.00;;;;;17.55;47.63;101619.72;5056325;28;45620;-82
2021/09/30 09:58:06;;;;;;;;;0.75;0.00;;;;;17.91;45.19;101617.31;5056743;28;45352;-82
2021/09/30 10:00:35;;;;;;;;;2.00;0.00;;;;;18.11;44.73;101621.28;5056485;28;45600;-82
2021/09/30 10:03:26;;;;;;;;;4.00;2.25;;;;;18.18;44.66;101606.44;5056686;28;45256;-82
2021/09/30 10:05:52;;;;;;;;;0.00;0.00;;;;;18.32;44.68;101612.69;5056364;28;45543;-82
2021/09/30 10:08:17;;;;;;;;;1.00;0.00;;;;;18.63;44.00;101611.34;5056597;28;45209;-81
2021/09/30 10:10:45;;;;;;;;;0.75;0.00;;;;;19.03;44.24;101619.22;5055274;28;45298;-82
2021/09/30 10:13:11;;;;;;;;;1.50;1.00;;;;;19.28;44.82;101604.75;5055323;28;45209;-82
2021/09/30 10:15:38;;;;;;;;;0.25;0.00;;;;;19.82;43.04;101632.19;5056515;28;46310;-82
2021/09/30 10:18:06;;;;;;;;;1.00;0.00;;;;;20.16;41.81;101607.94;5056604;28;45198;-82
2021/09/30 10:20:32;;;;;;;;;1.00;0.00;;;;;20.49;42.24;101617.91;5056926;28;45087;-82
2021/09/30 10:22:59;;;;;;;;;0.00;0.00;;;;;20.63;39.30;101615.91;5056686;28;45175;-82
2021/09/30 10:25:33;;;;;;;;;1.50;0.00;;;;;20.61;39.87;101604.38;5056161;28;46428;-82
2021/09/30 10:28:01;;;;;;;;;0.00;0.00;;;;;20.75;40.03;101611.38;5071864;28;45155;-82
2021/09/30 10:30:48;;;;;;;;;0.00;0.00;;;;;20.86;40.91;101604.13;5056550;28;45364;-82
2021/09/30 10:33:19;;;;;;;;;0.25;0.00;;;;;21.04;40.06;101590.06;5056579;28;45244;-82
2021/09/30 10:35:48;;;;;;;;;3.00;0.00;;;;;21.16;38.52;101604.38;5058404;28;45948;-82
2021/09/30 10:38:16;;;;;;;;;1.75;0.00;;;;;20.92;38.71;101600.06;5076639;28;45563;-82
2021/09/30 10:40:59;;;;;;;;;0.25;0.00;;;;;20.83;38.53;101593.53;5076836;28;45233;-82
2021/09/30 10:43:25;;;;;;;;;1.25;0.00;;;;;20.81;39.88;101576.59;5076813;28;45219;-82
2021/09/30 10:45:51;;;;;;;;;0.00;0.00;;;;;21.03;37.66;101581.09;5076253;28;45375;-82
2021/09/30 10:48:31;;;;;;;;;0.00;0.00;;;;;21.14;39.52;101577.47;5058215;28;45877;-82
2021/09/30 10:51:08;;;;;;;;;1.50;0.25;;;;;21.42;37.80;101579.69;5076494;28;45186;-82
2021/09/30 10:53:45;;;;;;;;;2.00;1.00;;;;;21.45;35.79;101587.53;5058092;28;45647;-82
2021/09/30 10:56:41;;;;;;;;;2.00;0.00;;;;;21.14;37.65;101582.88;5079650;28;45716;-82
2021/09/30 10:59:09;;;;;;;;;0.00;0.00;;;;;20.91;38.30;101565.00;5080063;28;45298;-82
2021/09/30 11:01:54;;;;;;;;;0.25;0.00;;;;;20.93;37.96;101560.34;5079929;28;45150;-82
2021/09/30 11:04:21;;;;;;;;;0.25;0.00;;;;;20.98;39.09;101560.84;5079556;28;45247;-82
2021/09/30 11:07:05;;;;;;;;;1.75;1.00;;;;;21.25;39.33;101560.34;5079678;28;46335;-82
2021/09/30 11:09:31;;;;;;;;;1.00;0.00;;;;;21.64;38.75;101554.38;5079406;28;45213;-82
2021/09/30 11:12:08;;;;;;;;;1.50;1.00;;;;;21.99;38.40;101545.00;5079641;28;45270;-82
2021/09/30 11:14:50;;;;;;;;;2.00;1.00;;;;;22.31;38.00;101535.88;5079223;28;45342;-82
2021/09/30 11:17:33;;;;;;;;;1.50;0.00;;;;;22.65;35.53;101527.44;5079358;28;46293;-82
2021/09/30 11:20:29;;;;;;;;;3.00;0.25;;;;;22.71;36.17;101533.13;5079163;28;45193;-82
2021/09/30 11:22:54;;;;;;;;;0.50;0.50;;;;;22.74;35.24;101530.13;5079429;28;45140;-83
2021/09/30 11:25:20;;;;;;;;;0.25;0.00;;;;;22.77;35.45;101529.00;5079501;28;45235;-82
2021/09/30 11:27:45;;;;;;;;;0.25;0.00;;;;;22.85;35.55;101528.31;5079822;28;46048;-82
2021/09/30 11:30:20;;;;;;;;;0.00;0.00;;;;;23.03;36.06;101525.72;5079345;28;45237;-82
2021/09/30 11:32:46;;;;;;;;;1.50;0.00;;;;;23.26;34.52;101529.06;5079815;28;45332;-82
2021/09/30 11:35:11;;;;;;;;;0.25;0.00;;;;;23.23;34.34;101523.91;5060598;28;45405;-82
2021/09/30 11:37:43;;;;;;;;;0.00;0.00;;;;;23.09;32.93;101536.03;5079108;28;46984;-82
2021/09/30 11:40:20;;;;;;;;;0.00;0.00;;;;;22.68;33.18;101519.88;5079194;28;45230;-82
2021/09/30 11:42:49;;;;;;;;;0.00;0.00;;;;;22.36;34.08;101510.13;5060457;28;45507;-82
2021/09/30 11:45:25;;;;;;;;;0.00;0.00;;;;;22.41;35.07;101512.41;5079100;28;45254;-82
2021/09/30 11:47:59;;;;;;;;;0.75;0.00;;;;;22.52;32.64;101522.28;5079192;28;46477;-82
2021/09/30 11:50:26;;;;;;;;;1.50;0.00;;;;;22.38;35.15;101510.84;5078968;28;45358;-82
2021/09/30 11:53:04;;;;;;;;;0.00;0.00;;;;;22.57;33.30;101515.44;5060784;28;45256;-82
2021/09/30 11:55:33;;;;;;;;;0.00;0.00;;;;;22.55;34.33;101508.44;5078666;28;45187;-82
2021/09/30 11:58:02;;;;;;;;;0.75;0.00;;;;;22.56;34.75;101496.59;5078880;28;45278;-82
2021/09/30 12:00:27;;;;;;;;;1.00;0.00;;;;;22.74;34.48;101500.31;5078640;28;45378;-83
2021/09/30 12:03:05;;;;;;;;;2.25;0.00;;;;;22.86;32.85;101501.06;5077235;28;45289;-82
2021/09/30 12:05:36;;;;;;;;;0.00;0.00;;;;;22.65;33.22;101484.06;5078043;28;45259;-83
2021/09/30 12:08:04;;;;;;;;;1.00;0.00;;;;;22.64;32.50;101485.91;5078064;28;45821;-82
2021/09/30 12:10:32;;;;;;;;;2.00;0.00;;;;;22.50;33.25;101489.03;5078188;28;45577;-84
2021/09/30 12:12:58;;;;;;;;;0.00;0.00;;;;;22.29;32.58;101489.97;5078388;28;45275;-81
2021/09/30 12:15:24;;;;;;;;;0.00;0.00;;;;;22.12;34.49;101477.94;5078355;28;45245;-81
2021/09/30 12:17:50;;;;;;;;;0.00;0.00;;;;;22.09;34.86;101471.94;5078641;28;45458;-82
2021/09/30 12:20:17;;;;;;;;;1.25;0.00;;;;;22.15;34.96;101460.56;5078562;28;45191;-81
2021/09/30 12:22:46;;;;;;;;;2.50;0.00;;;;;22.41;34.15;101469.91;5077094;28;45204;-81
2021/09/30 12:25:15;;;;;;;;;3.00;0.00;;;;;22.35;33.62;101466.91;5078373;28;45220;-82
2021/09/30 12:27:50;;;;;;;;;0.00;0.00;;;;;22.25;33.38;101458.75;5078392;28;45326;-82
2021/09/30 12:30:19;;;;;;;;;0.00;0.00;;;;;21.94;33.02;101439.00;5078573;28;45218;-82
2021/09/30 12:32:48;;;;;;;;;0.00;0.00;;;;;21.78;33.16;101453.88;5078236;28;45249;-82
2021/09/30 12:35:20;;;;;;;;;0.00;0.00;;;;;21.55;34.06;101453.22;5078125;28;45360;-81
2021/09/30 12:37:57;;;;;;;;;2.00;0.00;;;;;21.36;33.40;101448.50;5078691;28;45354;-83
2021/09/30 12:40:33;;;;;;;;;0.00;0.00;;;;;21.21;34.62;101456.13;5078689;28;45146;-82
2021/09/30 12:43:03;;;;;;;;;0.50;0.00;;;;;21.10;33.43;101448.91;5078491;28;45273;-81
2021/09/30 12:45:31;;;;;;;;;0.25;0.00;;;;;20.86;34.38;101439.25;5078145;28;45366;-82
2021/09/30 12:48:01;;;;;;;;;0.00;0.00;;;;;20.85;35.61;101434.81;5078327;28;46292;-82
2021/09/30 12:50:35;;;;;;;;;0.00;0.00;;;;;21.12;36.72;101438.84;5078095;28;45507;-82
2021/09/30 12:53:03;;;;;;;;;0.00;0.00;;;;;21.35;35.94;101434.16;5078384;28;45207;-83
2021/09/30 12:55:29;;;;;;;;;1.00;0.00;;;;;21.50;35.70;101428.38;5078106;28;45229;-82
2021/09/30 12:57:55;;;;;;;;;0.25;0.00;;;;;21.62;35.37;101415.63;5078083;28;46542;-83
2021/09/30 13:00:23;;;;;;;;;2.00;0.00;;;;;21.63;34.91;101420.06;5077870;28;45364;-83
2021/09/30 13:02:55;;;;;;;;;0.25;0.00;;;;;21.47;34.56;101409.72;5078041;28;45309;-83
2021/09/30 13:05:21;;;;;;;;;0.50;0.00;;;;;21.35;34.62;101403.53;5077707;28;45246;-83
2021/09/30 13:07:52;;;;;;;;;0.00;0.00;;;;;21.33;35.64;101400.94;5078071;28;46065;-83
2021/09/30 13:10:19;;;;;;;;;0.00;0.00;;;;;21.46;35.85;101408.00;5077585;28;45558;-81
2021/09/30 13:13:03;;;;;;;;;0.00;0.00;;;;;21.64;34.66;101394.72;5077899;28;45164;-81
2021/09/30 13:15:42;;;;;;;;;1.00;0.00;;;;;21.62;33.91;101391.28;5076031;28;45103;-81
2021/09/30 13:18:11;;;;;;;;;0.00;0.00;;;;;21.59;34.70;101389.72;5076617;28;45512;-82
2021/09/30 13:20:37;;;;;;;;;0.75;0.00;;;;;21.60;35.44;101390.56;5077277;28;45586;-82
2021/09/30 13:23:03;;;;;;;;;0.00;0.00;;;;;21.55;34.42;101383.72;5077565;28;45131;-82
2021/09/30 13:25:28;;;;;;;;;0.00;0.00;;;;;;;;5077575;28;45197;-82
2021/09/30 13:27:54;;;;;;;;;0.00;0.00;;;;;21.49;35.49;101384.25;5077594;28;46414;-82
2021/09/30 13:30:22;;;;;;;;;1.25;0.00;;;;;21.46;35.05;101364.69;5077406;28;45260;-82
2021/09/30 13:32:48;;;;;;;;;0.25;0.00;;;;;21.48;35.37;101373.56;5077607;28;45249;-82
2021/09/30 13:35:15;;;;;;;;;0.00;0.00;;;;;21.49;34.01;101383.38;5076741;28;45148;-82
2021/09/30 13:37:40;;;;;;;;;2.00;0.00;;;;;21.32;35.35;101366.78;5077044;28;45224;-82
2021/09/30 13:40:08;;;;;;;;;0.00;0.00;;;;;21.29;34.88;101364.38;5077169;28;45198;-83
2021/09/30 13:42:36;;;;;;;;;1.00;0.00;;;;;21.16;34.96;101353.78;5077488;28;45114;-82
2021/09/30 13:45:05;;;;;;;;;0.00;0.00;;;;;21.07;35.34;101343.75;5077133;28;45253;-82
2021/09/30 13:47:31;;;;;;;;;0.00;0.00;;;;;20.91;35.23;101343.34;5077513;28;47685;-82
2021/09/30 13:49:57;;;;;;;;;0.00;0.00;;;;;20.64;36.17;101307.75;5077696;28;45179;-82
2021/09/30 13:52:23;;;;;;;;;0.00;0.00;;;;;20.88;36.81;101335.53;5077670;28;45214;-82
2021/09/30 13:54:48;;;;;;;;;0.00;0.00;;;;;20.86;36.24;101325.72;5077687;28;45202;-82
2021/09/30 13:57:14;;;;;;;;;1.00;1.00;;;;;20.79;37.28;101318.25;5077305;28;45442;-82
2021/09/30 13:59:39;;;;;;;;;0.00;0.00;;;;;20.93;36.97;101326.03;5077440;28;45203;-82
2021/09/30 14:02:06;;;;;;;;;0.00;0.00;;;;;20.91;36.59;101322.59;5077707;28;45464;-82
2021/09/30 14:04:32;;;;;;;;;0.00;0.00;;;;;20.85;36.39;101320.44;5077371;28;45230;-82
2021/09/30 14:06:58;;;;;;;;;1.25;0.00;;;;;20.84;36.25;101306.06;5077274;28;45227;-82
2021/09/30 14:09:25;;;;;;;;;2.50;0.00;;;;;20.85;37.02;101302.38;5077019;28;45209;-83
2021/09/30 14:11:51;;;;;;;;;0.50;0.00;;;;;20.87;36.14;101296.84;5077399;28;45183;-82
2021/09/30 14:14:17;;;;;;;;;0.00;0.00;;;;;20.85;37.21;101302.38;5077338;28;45238;-82
2021/09/30 14:16:44;;;;;;;;;1.00;0.00;;;;;20.74;36.19;101278.13;5076786;28;46230;-83
2021/09/30 14:19:09;;;;;;;;;0.00;0.00;;;;;20.68;36.52;101281.38;5076640;28;45492;-83
2021/09/30 14:21:35;;;;;;;;;0.00;0.00;;;;;20.47;36.65;101259.75;5077028;28;45223;-83
2021/09/30 14:24:00;;;;;;;;;0.25;0.00;;;;;20.50;35.24;101284.63;5076992;28;45462;-83
2021/09/30 14:26:25;;;;;;;;;1.00;0.00;;;;;20.20;35.99;101277.31;5076599;28;45505;-83
2021/09/30 14:28:51;;;;;;;;;0.50;0.00;;;;;19.89;36.96;101268.25;5077041;28;45217;-84